Time;durP1;ratioP1;P1;durP2;ratioP2;P2;SDS_P1;SDS_P2;PMS_P1;PMS_P2;Temp;Humidity;BMP_temperature;BMP_pressure;BME280_temperature;BME280_humidity;BME280_pressure;Samples;Min_cycle;Max_cycle;Signal;HPM_P1;HPM_P2
2022/08/23 00:02:03;;;;;;;7.50;5.05;;;17.40;99.90;;;;;;4828304;29;20124;-91
2022/08/23 00:04:33;;;;;;;4.70;4.30;;;17.30;99.90;;;;;;4828164;29;20133;-91
2022/08/23 00:07:00;;;;;;;8.60;5.00;;;17.30;99.90;;;;;;4827738;29;20275;-93
2022/08/23 00:09:27;;;;;;;6.07;4.90;;;17.30;99.90;;;;;;4828244;29;20026;-92
2022/08/23 00:12:14;;;;;;;8.55;4.40;;;17.30;99.90;;;;;;4843438;29;20038;-93
2022/08/23 00:14:44;;;;;;;5.65;4.85;;;17.30;99.90;;;;;;4827359;29;20042;-92
2022/08/23 00:17:12;;;;;;;6.40;5.22;;;17.20;99.90;;;;;;4828635;29;20029;-93
2022/08/23 00:19:39;;;;;;;7.90;5.38;;;17.20;99.90;;;;;;4828171;29;20431;-91
2022/08/23 00:22:05;;;;;;;7.47;5.10;;;17.20;99.90;;;;;;4843273;29;20109;-90
2022/08/23 00:24:33;;;;;;;11.18;5.05;;;17.20;99.90;;;;;;4828112;29;20036;-91
2022/08/23 00:27:11;;;;;;;10.45;5.68;;;17.20;99.90;;;;;;4843350;29;20038;-93
2022/08/23 00:29:46;;;;;;;9.00;5.55;;;17.20;99.90;;;;;;4843916;29;20026;-92
2022/08/23 00:32:15;;;;;;;7.93;5.40;;;17.10;99.90;;;;;;4827334;29;20045;-92
2022/08/23 00:34:40;;;;;;;7.50;5.65;;;17.10;99.90;;;;;;4827762;29;20053;-92
2022/08/23 00:37:08;;;;;;;6.85;6.03;;;17.10;99.90;;;;;;4828045;29;20030;-92
2022/08/23 00:39:37;;;;;;;10.52;5.38;;;17.00;99.90;;;;;;4828051;29;20030;-92
2022/08/23 00:48:30;;;;;;;15.57;6.03;;;16.90;99.90;;;;;;4844461;29;20068;-92
2022/08/23 00:51:14;;;;;;;7.45;5.35;;;16.90;99.90;;;;;;4828221;29;20089;-92
2022/08/23 00:53:54;;;;;;;7.28;5.45;;;16.90;99.90;;;;;;4828890;29;20074;-92
2022/08/23 00:56:30;;;;;;;6.13;5.22;;;16.80;99.90;;;;;;4828609;29;20097;-94
2022/08/23 00:58:57;;;;;;;10.52;6.28;;;16.80;99.90;;;;;;4828350;29;20034;-93
2022/08/23 01:01:23;;;;;;;10.15;5.80;;;16.80;99.90;;;;;;4846591;29;20052;-92
2022/08/23 01:03:53;;;;;;;12.82;5.75;;;16.80;99.90;;;;;;4830095;29;20038;-92
2022/08/23 01:06:30;;;;;;;7.60;5.65;;;16.70;99.90;;;;;;4828522;29;20552;-93
2022/08/23 01:09:08;;;;;;;7.90;5.93;;;16.70;99.90;;;;;;4827471;29;20045;-90
2022/08/23 01:11:56;;;;;;;10.63;6.05;;;16.70;99.90;;;;;;4827512;29;20030;-92
2022/08/23 01:14:32;;;;;;;10.18;6.18;;;16.70;99.90;;;;;;4841840;29;20133;-93
2022/08/23 01:17:23;;;;;;;8.00;6.55;;;16.60;99.90;;;;;;4827304;29;20026;-92
2022/08/23 01:19:57;;;;;;;10.57;6.70;;;16.60;99.90;;;;;;4827572;29;20037;-92
2022/08/23 01:22:33;;;;;;;11.10;6.05;;;16.60;99.90;;;;;;4827357;29;20030;-93
2022/08/23 01:25:00;;;;;;;9.88;5.97;;;16.50;99.90;;;;;;4842452;29;20034;-92
2022/08/23 01:27:27;;;;;;;7.72;6.93;;;16.60;99.90;;;;;;4842114;29;20054;-91
2022/08/23 01:29:53;;;;;;;8.60;6.75;;;16.50;99.90;;;;;;4842138;29;20046;-92
2022/08/23 01:32:19;;;;;;;10.15;6.80;;;16.50;99.90;;;;;;4826467;29;20545;-92
2022/08/23 01:34:45;;;;;;;12.80;5.80;;;16.50;99.90;;;;;;4827078;29;20038;-92
2022/08/23 01:37:12;;;;;;;10.38;6.78;;;16.40;99.90;;;;;;4826556;29;20041;-94
2022/08/23 01:39:39;;;;;;;11.02;6.70;;;16.50;99.90;;;;;;4826701;29;20030;-93
2022/08/23 01:42:06;;;;;;;8.23;6.63;;;16.40;99.90;;;;;;4826685;29;20125;-93
2022/08/23 01:44:33;;;;;;;10.52;6.65;;;16.40;99.90;;;;;;4826384;29;20030;-92
2022/08/23 01:46:59;;;;;;;17.10;6.75;;;16.40;99.90;;;;;;4826799;29;20030;-93
2022/08/23 01:49:25;;;;;;;39.85;6.10;;;16.40;99.90;;;;;;4842520;29;20038;-93
2022/08/23 01:51:51;;;;;;;42.92;6.22;;;16.30;99.90;;;;;;4826609;29;20447;-92
2022/08/23 01:54:18;;;;;;;33.70;5.85;;;16.30;99.90;;;;;;4826569;29;20045;-91
2022/08/23 01:56:44;;;;;;;19.52;5.80;;;16.30;99.90;;;;;;4826311;29;20030;-92
2022/08/23 01:59:14;;;;;;;16.90;5.63;;;16.30;99.90;;;;;;4826571;29;20036;-92
2022/08/23 02:01:40;;;;;;;9.15;6.43;;;16.20;99.90;;;;;;4827056;29;20026;-93
2022/08/23 02:04:06;;;;;;;20.42;5.75;;;16.20;99.90;;;;;;4826888;29;20030;-92
2022/08/23 02:06:33;;;;;;;15.70;5.93;;;16.20;99.90;;;;;;4826511;29;20062;-94
2022/08/23 02:09:01;;;;;;;13.77;6.60;;;16.20;99.90;;;;;;4842908;29;20140;-92
2022/08/23 02:11:49;;;;;;;14.90;4.32;;;16.20;99.90;;;;;;4828274;29;20030;-92
2022/08/23 02:14:19;;;;;;;13.57;5.13;;;16.10;99.90;;;;;;4829359;29;20137;-91
2022/08/23 02:16:51;;;;;;;19.38;4.90;;;16.10;99.90;;;;;;4827636;29;20029;-94
2022/08/23 02:19:19;;;;;;;9.57;6.10;;;16.10;99.90;;;;;;4826511;29;20034;-91
2022/08/23 02:21:46;;;;;;;13.63;5.53;;;16.00;99.90;;;;;;4842953;29;20045;-92
2022/08/23 02:24:14;;;;;;;10.15;6.65;;;16.00;99.90;;;;;;4841562;29;20065;-92
2022/08/23 02:26:48;;;;;;;10.20;6.45;;;16.00;99.90;;;;;;4826873;29;20030;-92
2022/08/23 02:29:15;;;;;;;12.85;5.65;;;16.00;99.90;;;;;;4826756;29;20102;-94
2022/08/23 02:31:43;;;;;;;7.38;5.53;;;16.00;99.90;;;;;;4826701;29;20030;-92
2022/08/23 02:34:14;;;;;;;6.72;5.43;;;16.00;99.90;;;;;;4842693;29;20042;-91
2022/08/23 02:36:42;;;;;;;;;;;16.00;99.90;;;;;;4827882;29;20079;-92
2022/08/23 02:39:11;;;;;;;7.82;6.10;;;16.00;99.90;;;;;;4829726;29;19919;-92
2022/08/23 02:41:37;;;;;;;6.55;4.72;;;16.00;99.90;;;;;;4845264;29;20030;-92
2022/08/23 02:44:10;;;;;;;9.65;6.97;;;16.00;99.90;;;;;;4829410;29;20092;-92
2022/08/23 02:46:37;;;;;;;15.63;5.40;;;16.00;99.90;;;;;;4829592;29;20037;-91
2022/08/23 02:49:03;;;;;;;15.27;5.82;;;16.00;99.90;;;;;;4829356;29;20033;-92
2022/08/23 02:51:29;;;;;;;9.77;5.70;;;16.00;99.90;;;;;;4829515;29;20058;-92
2022/08/23 02:53:55;;;;;;;9.57;6.03;;;16.00;99.90;;;;;;4828976;29;20520;-92
2022/08/23 02:56:22;;;;;;;8.15;6.65;;;16.00;99.90;;;;;;4829482;29;20030;-92
2022/08/23 02:58:49;;;;;;;11.27;6.63;;;16.00;99.90;;;;;;4829179;29;20065;-91
2022/08/23 03:01:19;;;;;;;7.90;6.05;;;16.00;99.90;;;;;;4829464;29;20029;-92
2022/08/23 03:03:52;;;;;;;20.83;6.40;;;16.00;99.90;;;;;;4848416;29;20042;-92
2022/08/23 03:06:18;;;;;;;15.95;6.18;;;16.00;99.90;;;;;;4829242;29;20478;-93
2022/08/23 03:08:44;;;;;;;8.57;5.85;;;16.00;99.90;;;;;;4829362;29;20049;-91
2022/08/23 03:11:12;;;;;;;8.32;6.35;;;16.00;99.90;;;;;;4828757;29;20029;-93
2022/08/23 03:13:40;;;;;;;8.60;5.85;;;16.00;99.90;;;;;;4828884;29;20044;-93
2022/08/23 03:16:08;;;;;;;7.95;6.30;;;16.00;99.90;;;;;;4829285;29;20037;-91
2022/08/23 03:18:36;;;;;;;8.85;5.25;;;16.00;99.90;;;;;;4829084;29;20057;-94
2022/08/23 03:21:02;;;;;;;12.55;5.05;;;16.00;99.90;;;;;;4828845;29;20057;-93
2022/08/23 03:23:29;;;;;;;7.53;5.18;;;16.00;99.90;;;;;;4828735;29;20052;-93
2022/08/23 03:25:56;;;;;;;6.57;5.00;;;16.00;99.90;;;;;;4829018;29;20042;-92
2022/08/23 03:28:23;;;;;;;9.63;5.32;;;16.00;99.90;;;;;;4828297;29;20417;-91
2022/08/23 03:30:49;;;;;;;64.20;8.00;;;16.00;99.90;;;;;;4844095;29;20034;-92
2022/08/23 03:33:19;;;;;;;11.70;7.00;;;15.90;99.90;;;;;;4844914;29;20033;-93
2022/08/23 03:35:45;;;;;;;9.48;7.40;;;15.90;99.90;;;;;;4828423;29;20034;-92
2022/08/23 03:38:12;;;;;;;14.13;7.70;;;15.90;99.90;;;;;;4828511;29;20121;-93
2022/08/23 03:40:40;;;;;;;10.43;6.75;;;16.00;99.90;;;;;;4844728;29;20041;-92
2022/08/23 03:43:05;;;;;;;8.05;6.15;;;16.00;99.90;;;;;;4828643;29;20487;-92
2022/08/23 03:45:31;;;;;;;10.18;6.82;;;16.00;99.90;;;;;;4828389;29;20034;-92
2022/08/23 03:47:57;;;;;;;8.02;6.60;;;16.00;99.90;;;;;;4843647;29;20046;-92
2022/08/23 03:50:24;;;;;;;11.43;7.70;;;16.00;99.90;;;;;;4828118;29;20058;-94
2022/08/23 03:52:50;;;;;;;18.45;7.35;;;16.00;99.90;;;;;;4828239;29;20502;-93
2022/08/23 03:55:16;;;;;;;7.82;6.22;;;16.00;99.90;;;;;;4828232;29;20034;-92
2022/08/23 03:57:42;;;;;;;22.00;6.90;;;16.00;99.90;;;;;;4828303;29;20086;-93
2022/08/23 04:00:13;;;;;;;11.18;6.70;;;16.00;99.90;;;;;;4828767;29;20038;-92
2022/08/23 04:02:39;;;;;;;50.95;7.28;;;16.00;99.90;;;;;;4829056;29;20049;-91
2022/08/23 04:05:07;;;;;;;54.63;7.15;;;16.00;99.90;;;;;;4844170;29;20129;-92
2022/08/23 04:07:34;;;;;;;31.67;7.38;;;15.90;99.90;;;;;;4828426;29;20117;-92
2022/08/23 04:10:00;;;;;;;15.48;7.18;;;15.90;99.90;;;;;;4828423;29;20061;-92
2022/08/23 04:12:26;;;;;;;15.88;7.00;;;15.90;99.90;;;;;;4828556;29;20367;-92
2022/08/23 04:14:52;;;;;;;10.27;7.57;;;15.90;99.90;;;;;;4827803;29;20077;-92
2022/08/23 04:17:23;;;;;;;7.90;6.93;;;15.80;99.90;;;;;;4828004;29;20029;-92
2022/08/23 04:19:50;;;;;;;11.50;6.65;;;15.90;99.90;;;;;;4828070;29;20092;-90
2022/08/23 04:22:17;;;;;;;16.33;5.97;;;15.90;99.90;;;;;;4842852;29;20037;-93
2022/08/23 04:24:44;;;;;;;11.75;6.78;;;15.90;99.90;;;;;;4828136;29;20030;-92
2022/08/23 04:27:11;;;;;;;10.27;6.47;;;15.90;99.90;;;;;;4827851;29;20082;-93
2022/08/23 04:29:38;;;;;;;14.98;7.18;;;16.00;99.90;;;;;;4828865;29;20157;-93
2022/08/23 04:32:06;;;;;;;9.75;7.28;;;16.00;99.90;;;;;;4829062;29;20026;-92
2022/08/23 04:34:33;;;;;;;8.80;6.88;;;16.00;99.90;;;;;;4831813;29;20038;-92
2022/08/23 04:36:59;;;;;;;11.10;7.55;;;15.90;99.90;;;;;;4846453;29;20111;-92
2022/08/23 04:39:26;;;;;;;9.75;6.72;;;15.90;99.90;;;;;;4861913;29;20105;-92
2022/08/23 04:44:39;;;;;;;14.18;7.60;;;15.90;99.90;;;;;;4855592;29;20061;-93
2022/08/23 04:47:05;;;;;;;11.88;7.10;;;15.90;99.90;;;;;;4847952;29;20114;-91
2022/08/23 04:49:32;;;;;;;14.50;6.85;;;15.90;99.90;;;;;;4827816;29;20030;-92
2022/08/23 04:51:59;;;;;;;14.52;6.40;;;15.90;99.90;;;;;;4827867;29;20050;-93
2022/08/23 04:54:25;;;;;;;11.75;6.53;;;15.90;99.90;;;;;;4827447;29;20042;-91
2022/08/23 04:56:51;;;;;;;9.10;6.90;;;15.90;99.90;;;;;;4827350;29;20186;-93
2022/08/23 04:59:18;;;;;;;9.73;7.40;;;15.90;99.90;;;;;;4827205;29;20638;-93
2022/08/23 05:01:44;;;;;;;9.98;6.50;;;15.90;99.90;;;;;;4827642;29;20042;-92
2022/08/23 05:04:10;;;;;;;10.30;7.03;;;15.90;99.90;;;;;;4827669;29;20108;-92
2022/08/23 05:06:37;;;;;;;10.15;6.82;;;15.90;99.90;;;;;;4830579;29;20042;-92
2022/08/23 05:09:03;;;;;;;11.20;7.07;;;15.90;99.90;;;;;;4828603;29;20129;-92
2022/08/23 05:11:29;;;;;;;12.25;6.93;;;15.90;99.90;;;;;;4829017;29;20034;-92
2022/08/23 05:13:55;;;;;;;9.50;6.40;;;15.90;99.90;;;;;;4825800;29;20494;-92
2022/08/23 05:16:22;;;;;;;11.35;6.28;;;15.90;99.90;;;;;;4827040;29;20036;-93
2022/08/23 05:18:48;;;;;;;12.75;6.68;;;15.90;99.90;;;;;;4827087;29;20042;-92
2022/08/23 05:21:20;;;;;;;11.05;6.35;;;16.00;99.90;;;;;;4827116;29;20526;-91
2022/08/23 05:23:46;;;;;;;9.82;6.63;;;16.00;99.90;;;;;;4827115;29;20554;-92
2022/08/23 05:26:12;;;;;;;10.90;7.30;;;16.00;99.90;;;;;;4827195;29;20110;-93
2022/08/23 05:28:46;;;;;;;59.65;8.57;;;16.00;99.90;;;;;;4842042;29;20490;-91
2022/08/23 05:31:20;;;;;;;14.77;7.00;;;16.00;99.90;;;;;;4826988;29;20026;-92
2022/08/23 05:33:46;;;;;;;11.70;7.30;;;15.90;99.90;;;;;;4826582;29;20034;-91
2022/08/23 05:36:15;;;;;;;10.43;7.18;;;15.90;99.90;;;;;;4826868;29;20030;-93
2022/08/23 05:38:42;;;;;;;10.90;6.50;;;15.90;99.90;;;;;;4827558;29;20038;-91
2022/08/23 05:41:08;;;;;;;13.68;6.97;;;15.90;99.90;;;;;;4828244;29;20038;-91
2022/08/23 05:43:34;;;;;;;11.68;6.45;;;15.90;99.90;;;;;;4827640;29;20094;-92
2022/08/23 05:46:09;;;;;;;8.73;6.90;;;15.90;99.90;;;;;;4842244;29;20121;-92
2022/08/23 05:48:36;;;;;;;10.25;6.97;;;15.90;99.90;;;;;;4842192;29;20071;-91
2022/08/23 05:51:18;;;;;;;10.82;7.05;;;15.90;99.90;;;;;;4826473;29;20038;-91
2022/08/23 05:53:45;;;;;;;10.23;7.70;;;16.00;99.90;;;;;;4827219;29;20045;-92
2022/08/23 05:56:20;;;;;;;11.82;7.57;;;16.00;99.90;;;;;;4826994;29;20072;-92
2022/08/23 05:58:50;;;;;;;11.60;7.53;;;16.10;99.90;;;;;;4826623;29;20559;-92
2022/08/23 06:01:17;;;;;;;11.00;7.57;;;16.10;99.90;;;;;;4826731;29;20034;-92
2022/08/23 06:03:43;;;;;;;11.00;7.00;;;16.10;99.90;;;;;;4826689;29;20041;-92
2022/08/23 06:06:14;;;;;;;14.32;8.45;;;16.20;99.90;;;;;;4826703;29;20030;-92
2022/08/23 06:08:45;;;;;;;18.98;7.80;;;16.20;99.90;;;;;;4826689;29;20034;-92
2022/08/23 06:11:12;;;;;;;;;;;16.30;99.90;;;;;;4842476;29;20071;-93
2022/08/23 06:13:41;;;;;;;10.63;7.68;;;16.30;99.90;;;;;;4845106;29;19950;-94
2022/08/23 06:16:08;;;;;;;11.40;7.45;;;16.30;99.90;;;;;;4830274;29;20414;-92
2022/08/23 06:18:34;;;;;;;11.88;8.23;;;16.30;99.90;;;;;;4829806;29;20048;-91
2022/08/23 06:21:05;;;;;;;11.05;7.82;;;16.30;99.90;;;;;;4829825;29;20490;-92
2022/08/23 06:23:32;;;;;;;12.18;8.32;;;16.40;99.90;;;;;;4833231;29;20068;-90
2022/08/23 06:26:01;;;;;;;13.13;8.95;;;16.50;99.90;;;;;;4829621;29;20042;-91
2022/08/23 06:28:33;;;;;;;11.40;7.55;;;16.50;99.90;;;;;;4851432;29;20054;-94
2022/08/23 06:30:59;;;;;;;12.82;7.90;;;16.60;99.90;;;;;;4834419;29;20030;-92
2022/08/23 06:33:26;;;;;;;10.55;7.90;;;16.60;99.90;;;;;;4828699;29;20065;-93
2022/08/23 06:36:03;;;;;;;13.95;9.15;;;16.60;99.90;;;;;;4829819;29;20056;-91
2022/08/23 06:38:30;;;;;;;12.32;9.00;;;16.60;99.90;;;;;;4829158;29;20122;-94
2022/08/23 06:41:07;;;;;;;11.52;8.35;;;16.70;99.90;;;;;;4829500;29;20486;-94
2022/08/23 06:43:36;;;;;;;15.18;8.70;;;16.70;99.90;;;;;;4846127;29;20044;-92
2022/08/23 06:46:16;;;;;;;10.30;7.40;;;16.80;99.90;;;;;;4844556;29;20037;-92
2022/08/23 06:48:46;;;;;;;16.85;10.48;;;16.80;99.90;;;;;;4829101;29;20501;-93
2022/08/23 06:51:34;;;;;;;15.55;10.13;;;16.80;99.90;;;;;;4829168;29;20038;-92
2022/08/23 06:54:02;;;;;;;20.52;11.02;;;16.90;99.90;;;;;;4828773;29;20046;-91
2022/08/23 06:56:32;;;;;;;16.65;9.57;;;17.00;99.90;;;;;;4829121;29;20025;-92
2022/08/23 06:58:58;;;;;;;16.67;10.88;;;17.00;99.90;;;;;;4829017;29;20042;-92
2022/08/23 07:01:36;;;;;;;17.95;11.70;;;17.10;99.90;;;;;;4829029;29;20038;-92
2022/08/23 07:04:05;;;;;;;14.93;9.65;;;17.10;99.90;;;;;;4845629;29;20034;-93
2022/08/23 07:06:33;;;;;;;20.60;10.45;;;17.20;99.90;;;;;;4828923;29;20406;-91
2022/08/23 07:09:00;;;;;;;15.85;10.50;;;17.20;99.90;;;;;;4829668;29;20041;-93
2022/08/23 07:11:31;;;;;;;16.15;9.80;;;17.30;99.90;;;;;;4848984;29;20042;-91
2022/08/23 07:14:03;;;;;;;14.85;10.07;;;17.30;99.90;;;;;;4829567;29;20041;-92
2022/08/23 07:16:42;;;;;;;17.88;10.35;;;17.30;99.90;;;;;;4832779;29;20572;-91
2022/08/23 07:19:09;;;;;;;16.27;10.88;;;17.30;99.90;;;;;;4847145;29;20042;-91
2022/08/23 07:21:38;;;;;;;16.05;10.80;;;17.40;99.90;;;;;;4828418;29;20045;-93
2022/08/23 07:24:04;;;;;;;15.50;10.20;;;17.40;99.90;;;;;;4828115;29;20090;-93
2022/08/23 07:26:31;;;;;;;20.33;10.23;;;17.40;99.90;;;;;;4828603;29;20034;-94
2022/08/23 07:29:01;;;;;;;16.63;9.93;;;17.40;99.90;;;;;;4828739;29;20486;-93
2022/08/23 07:31:30;;;;;;;17.40;10.65;;;17.50;99.90;;;;;;4828609;29;20066;-93
2022/08/23 07:33:58;;;;;;;17.38;10.13;;;17.50;99.90;;;;;;4828928;29;20038;-93
2022/08/23 07:36:32;;;;;;;14.70;9.52;;;17.50;99.90;;;;;;4829460;29;20026;-93
2022/08/23 07:39:06;;;;;;;17.33;10.18;;;17.50;99.90;;;;;;4829598;29;20124;-92
2022/08/23 07:41:32;;;;;;;18.45;9.88;;;17.60;99.90;;;;;;4829960;29;20134;-92
2022/08/23 07:44:02;;;;;;;14.15;9.40;;;17.60;99.90;;;;;;4844333;29;20038;-92
2022/08/23 07:46:31;;;;;;;15.85;9.23;;;17.60;99.90;;;;;;4829276;29;20042;-92
2022/08/23 07:49:00;;;;;;;17.05;10.45;;;17.60;99.90;;;;;;4831452;29;20038;-91
2022/08/23 07:51:31;;;;;;;16.50;10.43;;;17.70;99.90;;;;;;4831867;29;20158;-93
2022/08/23 07:53:59;;;;;;;18.80;11.15;;;17.70;99.90;;;;;;4829037;29;20073;-91
2022/08/23 07:56:27;;;;;;;16.30;11.38;;;17.70;99.90;;;;;;4829270;29;20034;-91
2022/08/23 07:58:54;;;;;;;17.38;11.05;;;17.70;99.90;;;;;;4846620;29;20199;-92
2022/08/23 08:01:24;;;;;;;16.50;9.88;;;17.80;99.90;;;;;;4828704;29;20117;-93
2022/08/23 08:03:53;;;;;;;17.95;11.35;;;17.80;99.90;;;;;;4827791;29;20049;-90
2022/08/23 08:06:28;;;;;;;18.75;10.82;;;17.90;99.90;;;;;;4828268;29;20037;-94
2022/08/23 08:08:57;;;;;;;15.65;10.07;;;17.90;99.90;;;;;;4828420;29;20121;-93
2022/08/23 08:11:31;;;;;;;15.52;9.63;;;18.00;99.90;;;;;;4827797;29;20030;-92
2022/08/23 08:13:58;;;;;;;11.50;8.60;;;18.00;99.90;;;;;;4842999;29;20474;-91
2022/08/23 08:16:31;;;;;;;13.85;8.27;;;18.10;99.90;;;;;;4827429;29;20034;-92
2022/08/23 08:19:05;;;;;;;12.55;8.43;;;18.10;99.90;;;;;;4827747;29;20026;-91
2022/08/23 08:21:52;;;;;;;15.55;9.15;;;18.20;99.90;;;;;;4827621;29;20121;-92
2022/08/23 08:24:19;;;;;;;13.18;9.10;;;18.10;99.90;;;;;;4843424;29;20118;-91
2022/08/23 08:26:50;;;;;;;14.45;9.60;;;18.20;99.90;;;;;;4827430;29;20038;-90
2022/08/23 08:29:15;;;;;;;19.33;10.65;;;18.20;99.90;;;;;;4841538;29;20057;-91
2022/08/23 08:31:46;;;;;;;15.65;10.00;;;18.20;99.90;;;;;;4827902;29;20042;-92
2022/08/23 08:34:13;;;;;;;16.58;9.00;;;18.30;99.90;;;;;;4827911;29;20075;-92
2022/08/23 08:36:42;;;;;;;12.65;8.25;;;18.30;99.90;;;;;;4828561;29;20030;-91
2022/08/23 08:39:18;;;;;;;14.40;9.13;;;18.30;99.90;;;;;;4827316;29;20128;-90
2022/08/23 08:42:14;;;;;;;15.63;8.48;;;18.40;99.90;;;;;;4843483;29;20026;-91
2022/08/23 08:44:54;;;;;;;11.73;8.15;;;18.40;99.90;;;;;;4842562;29;20058;-91
2022/08/23 08:47:43;;;;;;;14.45;7.65;;;18.50;99.90;;;;;;4828283;29;20076;-91
2022/08/23 08:50:13;;;;;;;12.07;7.32;;;18.50;99.90;;;;;;4854196;29;20033;-91
2022/08/23 08:52:56;;;;;;;;;;;18.60;99.90;;;;;;4834206;29;20527;-91
2022/08/23 08:55:49;;;;;;;8.98;5.65;;;18.60;99.90;;;;;;4846789;29;19921;-92
2022/08/23 08:58:47;;;;;;;5.90;4.60;;;18.70;99.90;;;;;;4841225;29;20037;-90
2022/08/23 09:01:17;;;;;;;10.07;4.35;;;18.70;99.90;;;;;;4849455;29;20097;-93
2022/08/23 09:03:50;;;;;;;5.32;4.10;;;18.80;99.90;;;;;;4831284;29;20038;-90
2022/08/23 09:06:46;;;;;;;4.95;4.00;;;18.80;99.90;;;;;;4831289;29;20042;-89
2022/08/23 09:09:49;;;;;;;4.75;3.60;;;18.80;99.90;;;;;;4845114;29;20038;-92
2022/08/23 09:12:32;;;;;;;5.82;3.72;;;18.80;99.90;;;;;;4845373;29;20106;-92
2022/08/23 09:15:38;;;;;;;5.65;3.22;;;18.90;99.90;;;;;;4833723;29;20038;-93
2022/08/23 09:18:18;;;;;;;4.68;3.30;;;18.90;99.90;;;;;;4844399;29;20118;-93
2022/08/23 09:20:49;;;;;;;3.03;2.40;;;19.00;99.90;;;;;;4828042;29;20026;-92
2022/08/23 09:23:44;;;;;;;7.22;2.97;;;19.10;99.90;;;;;;4844332;29;20029;-93
2022/08/23 09:26:36;;;;;;;6.07;2.20;;;19.20;99.90;;;;;;4833138;29;20032;-91
2022/08/23 09:29:29;;;;;;;3.65;2.20;;;19.30;99.90;;;;;;4844741;29;20509;-93
2022/08/23 09:32:04;;;;;;;3.00;2.00;;;19.40;99.90;;;;;;4827547;29;20030;-93
2022/08/23 09:34:40;;;;;;;2.28;2.08;;;19.50;99.90;;;;;;4843863;29;20069;-90
2022/08/23 09:37:21;;;;;;;3.47;2.28;;;19.50;99.90;;;;;;4827974;29;20030;-91
2022/08/23 09:40:26;;;;;;;3.00;2.10;;;19.60;99.90;;;;;;4827503;29;20091;-91
2022/08/23 09:43:24;;;;;;;2.42;2.22;;;19.60;99.90;;;;;;4827436;29;20029;-90
2022/08/23 09:45:51;;;;;;;3.17;2.20;;;19.60;99.90;;;;;;4844702;29;20038;-92
2022/08/23 09:48:36;;;;;;;3.58;2.05;;;19.70;99.90;;;;;;4845708;29;20406;-93
2022/08/23 09:51:18;;;;;;;4.05;2.38;;;19.80;99.90;;;;;;4845980;29;20124;-90
2022/08/23 09:53:51;;;;;;;3.00;2.70;;;19.90;99.90;;;;;;4830337;29;20501;-93
2022/08/23 09:56:24;;;;;;;6.13;2.90;;;20.00;99.90;;;;;;4830167;29;20026;-90
2022/08/23 09:58:53;;;;;;;3.88;2.38;;;20.10;99.90;;;;;;4830413;29;20034;-91
2022/08/23 10:01:26;;;;;;;2.78;1.60;;;20.20;99.90;;;;;;4846221;29;20402;-91
2022/08/23 10:04:18;;;;;;;4.25;2.72;;;20.40;99.90;;;;;;4830599;29;20034;-90
2022/08/23 10:06:46;;;;;;;4.63;2.00;;;20.70;99.90;;;;;;4829935;29;20036;-91
2022/08/23 10:09:32;;;;;;;5.88;2.30;;;20.90;99.90;;;;;;4830086;29;20034;-91
2022/08/23 10:12:12;;;;;;;2.70;2.10;;;21.20;99.90;;;;;;4830254;29;20067;-91
2022/08/23 10:14:38;;;;;;;2.22;1.83;;;21.40;99.90;;;;;;4830057;29;20054;-93
2022/08/23 10:17:13;;;;;;;3.25;2.10;;;21.50;99.90;;;;;;4845104;29;20044;-91
2022/08/23 10:19:48;;;;;;;2.30;1.50;;;21.60;99.90;;;;;;4829717;29;20033;-92
2022/08/23 10:22:27;;;;;;;2.55;1.40;;;21.60;99.90;;;;;;4844941;29;20033;-92
2022/08/23 10:25:32;;;;;;;3.83;1.60;;;21.50;99.90;;;;;;4845750;29;20125;-92
2022/08/23 10:31:10;;;;;;;2.28;1.80;;;21.50;99.90;;;;;;4846010;29;20533;-92
2022/08/23 10:33:51;;;;;;;2.08;1.83;;;21.70;99.90;;;;;;4844994;29;20048;-93
2022/08/23 10:36:46;;;;;;;11.13;2.70;;;21.90;99.90;;;;;;4829338;29;20030;-92
2022/08/23 10:39:36;;;;;;;3.78;2.22;;;22.00;99.90;;;;;;4845110;29;20121;-93
2022/08/23 10:42:25;;;;;;;2.90;1.60;;;22.10;99.90;;;;;;4829843;29;20046;-94
2022/08/23 10:44:59;;;;;;;3.63;2.20;;;22.10;99.90;;;;;;4829733;29;20038;-89
2022/08/23 10:47:41;;;;;;;3.38;2.25;;;22.10;99.90;;;;;;4829417;29;20034;-91
2022/08/23 10:50:13;;;;;;;3.03;2.22;;;22.30;99.90;;;;;;4829434;29;20049;-91
2022/08/23 10:53:22;;;;;;;2.28;1.75;;;22.60;99.90;;;;;;4829480;29;20026;-91
2022/08/23 10:56:02;;;;;;;2.22;2.03;;;22.70;99.90;;;;;;4792134;29;20070;-88
2022/08/23 10:58:53;;;;;;;3.03;2.57;;;23.00;99.90;;;;;;4791907;29;20136;-92
2022/08/23 11:01:30;;;;;;;4.07;2.35;;;23.10;99.90;;;;;;4792607;29;20365;-93
2022/08/23 11:04:07;;;;;;;4.68;2.13;;;23.10;99.90;;;;;;4807191;29;20106;-90
2022/08/23 11:06:36;;;;;;;4.65;2.28;;;23.00;99.90;;;;;;4806766;29;20047;-91
2022/08/23 11:09:19;;;;;;;1.98;1.63;;;23.00;99.90;;;;;;4791958;29;20514;-91
2022/08/23 11:12:06;;;;;;;3.83;2.17;;;23.00;99.90;;;;;;4792144;29;20035;-92
2022/08/23 11:14:56;;;;;;;3.25;1.60;;;23.00;99.90;;;;;;4791561;29;20054;-91
2022/08/23 11:17:33;;;;;;;2.45;1.42;;;23.00;99.90;;;;;;4809055;29;20031;-91
2022/08/23 11:20:08;;;;;;;2.22;1.60;;;23.00;99.90;;;;;;4806707;29;20531;-91
2022/08/23 11:23:00;;;;;;;1.88;1.75;;;22.90;99.90;;;;;;4791622;29;20069;-91
2022/08/23 11:25:26;;;;;;;2.88;1.60;;;23.00;99.90;;;;;;4774811;29;20070;-91
2022/08/23 11:28:21;;;;;;;3.10;2.28;;;23.00;99.90;;;;;;4791257;29;20069;-92
2022/08/23 11:31:08;;;;;;;4.03;2.33;;;23.20;99.90;;;;;;4791231;29;20133;-90
2022/08/23 11:33:59;;;;;;;2.95;2.10;;;23.60;99.90;;;;;;4843280;29;20046;-91
2022/08/23 11:36:28;;;;;;;1.95;1.85;;;24.00;99.90;;;;;;4842529;29;20498;-91
2022/08/23 11:38:56;;;;;;;2.42;1.73;;;24.10;99.90;;;;;;4843582;29;20049;-90
2022/08/23 11:41:33;;;;;;;3.15;1.95;;;24.20;99.90;;;;;;4843499;29;20037;-91
2022/08/23 11:44:06;;;;;;;3.50;1.80;;;24.30;99.60;;;;;;4844511;29;20121;-91
2022/08/23 11:46:49;;;;;;;4.10;1.95;;;24.20;99.20;;;;;;4843161;29;20030;-92
2022/08/23 11:49:28;;;;;;;4.43;1.90;;;24.30;99.10;;;;;;4827898;29;20038;-92
2022/08/23 11:52:14;;;;;;;2.95;2.00;;;24.40;97.80;;;;;;4843333;29;20117;-91
2022/08/23 11:55:16;;;;;;;3.60;1.80;;;24.60;97.20;;;;;;4828061;29;20064;-91
2022/08/23 11:58:19;;;;;;;1.85;1.70;;;24.70;96.40;;;;;;4843714;29;20475;-90
2022/08/23 12:01:11;;;;;;;5.00;1.70;;;25.20;95.40;;;;;;4845323;29;20038;-91
2022/08/23 12:04:09;;;;;;;6.05;2.00;;;25.50;94.30;;;;;;4843150;29;20158;-91
2022/08/23 12:07:02;;;;;;;4.20;1.80;;;25.60;92.60;;;;;;4844104;29;20022;-92
2022/08/23 12:09:39;;;;;;;2.95;1.88;;;25.70;92.50;;;;;;4827960;29;20041;-91
2022/08/23 12:12:32;;;;;;;3.08;1.55;;;25.70;91.80;;;;;;4844073;29;20034;-92
2022/08/23 12:15:18;;;;;;;1.80;1.42;;;25.60;91.40;;;;;;4829725;29;20054;-90
2022/08/23 12:17:45;;;;;;;3.35;1.73;;;25.70;90.80;;;;;;4828313;29;20030;-90
2022/08/23 12:20:19;;;;;;;3.13;1.48;;;25.80;90.80;;;;;;4842568;29;20061;-90
2022/08/23 12:23:01;;;;;;;3.17;1.60;;;25.90;90.30;;;;;;4827416;29;20067;-90
2022/08/23 12:25:30;;;;;;;1.65;1.30;;;26.20;89.90;;;;;;4842714;29;20066;-89
2022/08/23 12:28:30;;;;;;;2.88;1.20;;;26.60;89.40;;;;;;4827809;29;20046;-90
2022/08/23 12:31:07;;;;;;;4.60;1.17;;;26.80;86.10;;;;;;4827801;29;20053;-90
2022/08/23 12:33:50;;;;;;;3.65;1.17;;;27.10;85.40;;;;;;4827871;29;20132;-89
2022/08/23 12:36:40;;;;;;;3.20;1.30;;;27.30;84.10;;;;;;4827930;29;20030;-90
2022/08/23 12:39:24;;;;;;;1.23;1.10;;;27.30;81.50;;;;;;4843782;29;20038;-90
2022/08/23 12:41:54;;;;;;;2.08;1.13;;;27.10;80.60;;;;;;4843981;29;20482;-90
2022/08/23 12:44:25;;;;;;;2.78;1.30;;;26.90;81.10;;;;;;4844307;29;20033;-90
2022/08/23 12:46:52;;;;;;;3.65;1.40;;;26.70;81.80;;;;;;4827567;29;20034;-91
2022/08/23 12:49:35;;;;;;;3.28;1.70;;;26.50;82.60;;;;;;4842430;29;20034;-92
2022/08/23 12:52:07;;;;;;;3.80;2.17;;;26.30;82.90;;;;;;4827375;29;20486;-92
2022/08/23 12:54:53;;;;;;;3.00;2.30;;;25.90;83.80;;;;;;4843319;29;20046;-92
2022/08/23 12:57:28;;;;;;;5.10;2.50;;;25.70;85.10;;;;;;4827237;29;20038;-89
2022/08/23 13:00:21;;;;;;;3.30;1.73;;;25.80;86.90;;;;;;4827432;29;20034;-89
2022/08/23 13:03:16;;;;;;;4.15;2.22;;;26.30;87.50;;;;;;4827661;29;20033;-89
2022/08/23 13:05:59;;;;;;;3.45;2.20;;;26.40;85.40;;;;;;4839016;29;20094;-90
2022/08/23 13:08:33;;;;;;;3.05;2.25;;;26.40;83.90;;;;;;4838165;29;20033;-89
2022/08/23 13:11:09;;;;;;;5.68;2.42;;;26.10;83.20;;;;;;4843253;29;20026;-90
2022/08/23 13:13:41;;;;;;;4.43;3.20;;;25.80;83.90;;;;;;4840648;29;20042;-92
2022/08/23 13:16:40;;;;;;;7.32;3.80;;;25.90;85.80;;;;;;4841239;29;20110;-91
2022/08/23 13:19:26;;;;;;;5.47;3.50;;;25.90;85.40;;;;;;4834221;29;20053;-92
2022/08/23 13:22:13;;;;;;;4.28;3.03;;;26.00;86.10;;;;;;4831878;29;20038;-92
2022/08/23 13:24:42;;;;;;;3.20;2.60;;;25.90;86.00;;;;;;4827343;29;20026;-91
2022/08/23 13:27:17;;;;;;;4.07;3.00;;;25.90;86.50;;;;;;4843813;29;20030;-92